Time;durP1;ratioP1;P1;durP2;ratioP2;P2;SDS_P1;SDS_P2;PMS_P1;PMS_P2;Temp;Humidity;BMP_temperature;BMP_pressure;BME280_temperature;BME280_humidity;BME280_pressure;Samples;Min_cycle;Max_cycle;Signal;HPM_P1;HPM_P2
2021/11/04 00:02:18;;;;;;;11.43;7.60;;;9.70;99.90;;;;;;5057867;23;20496;-52
2021/11/04 00:04:44;;;;;;;10.90;6.40;;;9.70;99.90;;;;;;5051301;28;20444;-54
2021/11/04 00:07:13;;;;;;;10.43;7.00;;;9.70;99.90;;;;;;5058194;23;20526;-54
2021/11/04 00:09:41;;;;;;;10.63;8.10;;;9.70;99.90;;;;;;5051144;28;20482;-54
2021/11/04 00:12:10;;;;;;;14.60;7.80;;;9.70;99.90;;;;;;5057903;23;20492;-57
2021/11/04 00:14:37;;;;;;;11.83;6.77;;;9.70;99.90;;;;;;5050837;28;20450;-54
2021/11/04 00:17:04;;;;;;;9.63;6.13;;;9.70;99.90;;;;;;5050507;23;21240;-58
2021/11/04 00:19:35;;;;;;;13.13;7.87;;;9.60;99.90;;;;;;5031292;28;20512;-56
2021/11/04 00:22:02;;;;;;;15.20;7.30;;;9.60;99.90;;;;;;5045340;23;20480;-50
2021/11/04 00:24:29;;;;;;;12.20;6.90;;;9.60;99.90;;;;;;5050853;28;20448;-49
2021/11/04 00:26:57;;;;;;;19.43;9.37;;;9.60;99.90;;;;;;5073165;23;20471;-58
2021/11/04 00:29:24;;;;;;;12.83;7.47;;;9.60;99.90;;;;;;5051496;28;20447;-55
2021/11/04 00:31:51;;;;;;;11.23;8.03;;;9.60;99.90;;;;;;5058611;23;20800;-52
2021/11/04 00:34:22;;;;;;;12.43;7.17;;;9.60;99.90;;;;;;5051255;28;20468;-58
2021/11/04 00:39:14;;;;;;;11.83;7.87;;;9.50;99.90;;;;;;5052014;23;20479;-53
2021/11/04 00:41:41;;;;;;;12.90;8.43;;;9.50;99.90;;;;;;5050926;28;20186;-58
2021/11/04 00:44:10;;;;;;;14.70;7.30;;;9.50;99.90;;;;;;5058054;23;20566;-55
2021/11/04 00:46:40;;;;;;;12.07;8.10;;;9.40;99.90;;;;;;5051054;28;20523;-55
2021/11/04 00:49:08;;;;;;;14.87;7.90;;;9.50;99.90;;;;;;5072654;23;20488;-47
2021/11/04 00:51:38;;;;;;;15.13;8.80;;;9.40;99.90;;;;;;5050638;28;20464;-53
2021/11/04 00:54:06;;;;;;;14.33;8.03;;;9.40;99.90;;;;;;5072153;23;20528;-54
2021/11/04 00:56:33;;;;;;;15.00;8.10;;;9.40;99.90;;;;;;5051429;28;20437;-49
2021/11/04 00:59:00;;;;;;;21.07;8.33;;;9.40;99.90;;;;;;5058990;23;20949;-55
2021/11/04 01:01:29;;;;;;;16.40;9.37;;;9.40;99.90;;;;;;5051040;28;20471;-49
2021/11/04 01:03:55;;;;;;;13.90;8.13;;;9.30;99.90;;;;;;5058460;23;20492;-54
2021/11/04 01:06:23;;;;;;;15.93;9.57;;;9.30;99.90;;;;;;5050724;28;20984;-57
2021/11/04 01:08:52;;;;;;;13.27;8.00;;;9.30;99.90;;;;;;5058712;23;20491;-57
2021/11/04 01:11:23;;;;;;;20.87;10.13;;;9.30;99.90;;;;;;5054955;28;20428;-56
2021/11/04 01:13:51;;;;;;;14.00;8.70;;;9.30;99.90;;;;;;5077749;23;20492;-56
2021/11/04 01:16:17;;;;;;;13.30;7.60;;;9.30;99.90;;;;;;5054672;28;20563;-53
2021/11/04 01:18:45;;;;;;;14.43;10.23;;;9.40;99.90;;;;;;5061787;23;20488;-52
2021/11/04 01:21:12;;;;;;;12.33;8.37;;;9.40;99.90;;;;;;5055197;28;20436;-55
2021/11/04 01:26:11;;;;;;;16.90;7.93;;;9.30;99.90;;;;;;5058900;23;20487;-58
2021/11/04 01:28:40;;;;;;;14.63;9.00;;;9.30;99.90;;;;;;5054455;28;20466;-56
2021/11/04 01:31:11;;;;;;;17.23;9.40;;;9.30;99.90;;;;;;5061528;23;20491;-54
2021/11/04 01:33:38;;;;;;;17.60;9.90;;;9.30;99.90;;;;;;5054529;28;20508;-53
2021/11/04 01:36:08;;;;;;;14.57;8.60;;;9.30;99.90;;;;;;5061110;23;20480;-58
2021/11/04 01:38:36;;;;;;;15.50;9.43;;;9.30;99.90;;;;;;5035090;28;20574;-52
2021/11/04 01:41:02;;;;;;;13.40;8.77;;;9.30;99.90;;;;;;5040212;23;20481;-52
2021/11/04 01:43:29;;;;;;;23.70;9.80;;;9.30;99.90;;;;;;5034733;28;20477;-56
2021/11/04 01:45:57;;;;;;;14.50;8.57;;;9.30;99.90;;;;;;5066936;23;20518;-51
2021/11/04 01:48:26;;;;;;;13.33;7.77;;;9.30;99.90;;;;;;5054389;28;20464;-55
2021/11/04 01:50:54;;;;;;;14.00;9.23;;;9.30;99.90;;;;;;5061764;23;20498;-54
2021/11/04 01:53:22;;;;;;;16.67;9.90;;;9.30;99.90;;;;;;5054550;28;20498;-54
2021/11/04 01:55:54;;;;;;;17.60;9.80;;;9.30;99.90;;;;;;5111308;23;20469;-57
2021/11/04 01:58:21;;;;;;;18.73;9.90;;;9.30;99.90;;;;;;5050560;28;20605;-53
2021/11/04 02:00:47;;;;;;;12.80;8.63;;;9.30;99.90;;;;;;5057296;23;20484;-52
2021/11/04 02:03:22;;;;;;;16.60;9.47;;;9.30;99.90;;;;;;5050015;28;20506;-55
2021/11/04 02:05:56;;;;;;;22.90;10.63;;;9.30;99.90;;;;;;5056581;23;20545;-58
2021/11/04 02:08:31;;;;;;;19.97;10.93;;;9.30;99.90;;;;;;5049917;28;20539;-58
2021/11/04 02:11:09;;;;;;;15.57;10.00;;;9.30;99.90;;;;;;5070868;23;20499;-58
2021/11/04 02:13:44;;;;;;;16.30;9.80;;;9.30;99.90;;;;;;5049573;28;20444;-56
2021/11/04 02:16:11;;;;;;;17.03;10.37;;;9.30;99.90;;;;;;5057058;23;20487;-55
2021/11/04 02:18:38;;;;;;;18.13;10.47;;;9.30;99.90;;;;;;5049950;28;20590;-58
2021/11/04 02:21:12;;;;;;;15.83;9.57;;;9.30;99.90;;;;;;5054926;23;20457;-51
2021/11/04 02:23:46;;;;;;;15.50;10.10;;;9.30;99.90;;;;;;5049813;28;20472;-52
2021/11/04 02:26:16;;;;;;;19.43;11.23;;;9.20;99.90;;;;;;5056632;23;20460;-57
2021/11/04 02:28:44;;;;;;;14.90;9.90;;;9.20;99.90;;;;;;5049191;28;20460;-53
2021/11/04 02:31:11;;;;;;;16.30;9.10;;;9.30;99.90;;;;;;5049379;28;20444;-52
2021/11/04 02:33:43;;;;;;;18.13;10.57;;;9.20;99.90;;;;;;5071627;23;20599;-53
2021/11/04 02:36:10;;;;;;;18.87;10.70;;;9.20;99.90;;;;;;5048478;28;20793;-55
2021/11/04 02:38:38;;;;;;;25.67;11.07;;;9.10;99.90;;;;;;5055780;23;20492;-55
2021/11/04 02:41:06;;;;;;;17.77;10.90;;;9.10;99.90;;;;;;5048639;28;20802;-51
2021/11/04 02:43:37;;;;;;;20.53;10.13;;;9.00;99.90;;;;;;5056478;23;20480;-56
2021/11/04 02:46:04;;;;;;;22.57;11.97;;;9.10;99.90;;;;;;5049959;28;20483;-54
2021/11/04 02:48:32;;;;;;;20.40;11.80;;;9.10;99.90;;;;;;5058546;23;20524;-59
2021/11/04 02:50:59;;;;;;;25.87;12.33;;;9.10;99.90;;;;;;5029819;28;20596;-53
2021/11/04 02:53:28;;;;;;;23.60;11.77;;;9.10;99.90;;;;;;5046552;23;20480;-55
2021/11/04 02:55:56;;;;;;;19.13;10.67;;;9.10;99.90;;;;;;5048685;28;20482;-59
2021/11/04 02:58:25;;;;;;;22.80;12.27;;;9.10;99.90;;;;;;5055397;23;20484;-57
2021/11/04 03:00:56;;;;;;;24.20;11.70;;;9.10;99.90;;;;;;5049047;28;20483;-59
2021/11/04 03:03:24;;;;;;;22.73;12.40;;;9.10;99.90;;;;;;5070623;23;20492;-57
2021/11/04 03:05:51;;;;;;;24.40;12.83;;;9.00;99.90;;;;;;5048386;28;20920;-57
2021/11/04 03:08:17;;;;;;;20.60;11.30;;;9.00;99.90;;;;;;5056011;23;20504;-59
2021/11/04 03:10:44;;;;;;;16.23;9.67;;;9.00;99.90;;;;;;5048677;28;20488;-58
2021/11/04 03:13:11;;;;;;;24.87;12.17;;;9.10;99.90;;;;;;5056485;23;20448;-54
2021/11/04 03:15:40;;;;;;;22.70;12.90;;;9.10;99.90;;;;;;5048444;28;20472;-56
2021/11/04 03:18:09;;;;;;;18.30;11.87;;;9.10;99.90;;;;;;5048133;28;20459;-56
2021/11/04 03:20:36;;;;;;;19.87;11.10;;;9.10;99.90;;;;;;5048947;28;20525;-57
2021/11/04 03:23:05;;;;;;;22.93;12.00;;;9.10;99.90;;;;;;5048780;28;20924;-55
2021/11/04 03:25:32;;;;;;;17.83;12.20;;;9.10;99.90;;;;;;5048920;28;20473;-53
2021/11/04 03:28:00;;;;;;;20.10;11.23;;;9.10;99.90;;;;;;5048709;28;20467;-57
2021/11/04 03:30:31;;;;;;;20.50;13.60;;;9.10;99.90;;;;;;5048977;28;20475;-57
2021/11/04 03:32:59;;;;;;;23.47;12.50;;;9.10;99.90;;;;;;5048088;28;20428;-59
2021/11/04 03:35:29;;;;;;;20.67;12.17;;;9.00;99.90;;;;;;5048447;28;20523;-55
2021/11/04 03:37:58;;;;;;;28.10;13.70;;;9.00;99.90;;;;;;5049265;28;20472;-55
2021/11/04 03:40:26;;;;;;;26.77;15.30;;;9.00;99.90;;;;;;5048505;28;20448;-57
2021/11/04 03:42:53;;;;;;;23.07;14.77;;;9.00;99.90;;;;;;5048923;28;20464;-52
2021/11/04 03:45:21;;;;;;;25.67;14.03;;;9.00;99.90;;;;;;5049959;28;20448;-59
2021/11/04 03:47:48;;;;;;;22.27;12.57;;;9.00;99.90;;;;;;5048881;28;20491;-56
2021/11/04 03:50:17;;;;;;;20.37;13.00;;;9.10;99.90;;;;;;5048226;28;20444;-57
2021/11/04 03:52:47;;;;;;;29.57;13.00;;;9.10;99.90;;;;;;5048819;28;20479;-56
2021/11/04 03:55:16;;;;;;;20.27;12.67;;;9.00;99.90;;;;;;5049174;28;20475;-54
2021/11/04 03:57:45;;;;;;;23.67;14.17;;;9.00;99.90;;;;;;5049097;28;20424;-59
2021/11/04 04:00:14;;;;;;;24.47;13.90;;;9.00;99.90;;;;;;5048356;28;20834;-59
2021/11/04 04:02:41;;;;;;;25.53;13.37;;;9.00;99.90;;;;;;5048695;28;20448;-59
2021/11/04 04:05:08;;;;;;;24.63;14.00;;;9.00;99.90;;;;;;5048928;28;20515;-56
2021/11/04 04:07:35;;;;;;;25.60;13.20;;;9.00;99.90;;;;;;5047752;28;20510;-59
2021/11/04 04:10:03;;;;;;;21.90;13.07;;;9.00;99.90;;;;;;5048182;28;20473;-59
2021/11/04 04:12:30;;;;;;;28.93;15.50;;;9.00;99.90;;;;;;5048851;28;20511;-52
2021/11/04 04:14:57;;;;;;;27.67;15.50;;;9.00;99.90;;;;;;5048094;28;20476;-59
2021/11/04 04:17:23;;;;;;;27.60;15.87;;;9.00;99.90;;;;;;5048490;28;20425;-58
2021/11/04 04:19:51;;;;;;;29.27;17.10;;;9.00;99.90;;;;;;5048257;28;20475;-58
2021/11/04 04:22:19;;;;;;;25.77;14.07;;;9.00;99.90;;;;;;5048159;28;20463;-59
2021/11/04 04:24:46;;;;;;;27.63;16.43;;;9.00;99.90;;;;;;5048421;28;20909;-56
2021/11/04 04:27:16;;;;;;;26.90;15.00;;;9.00;99.90;;;;;;5048229;28;20487;-53
2021/11/04 04:29:43;;;;;;;26.93;15.30;;;9.10;99.90;;;;;;5048308;28;20949;-58
2021/11/04 04:32:10;;;;;;;28.93;18.17;;;9.10;99.90;;;;;;5048202;28;20468;-59
2021/11/04 04:34:37;;;;;;;34.83;15.67;;;9.00;99.90;;;;;;5048136;28;20448;-58
2021/11/04 04:37:04;;;;;;;28.97;14.07;;;9.00;99.90;;;;;;5048644;28;20453;-58
2021/11/04 04:39:33;;;;;;;27.87;14.67;;;9.00;99.90;;;;;;5048017;28;20495;-59
2021/11/04 04:41:59;;;;;;;32.77;16.80;;;8.90;99.90;;;;;;5048453;28;20471;-52
2021/11/04 04:44:27;;;;;;;28.67;15.20;;;9.00;99.90;;;;;;5049919;28;20479;-52
2021/11/04 04:46:54;;;;;;;30.30;17.37;;;9.00;99.90;;;;;;5052258;28;20480;-57
2021/11/04 04:49:21;;;;;;;27.03;17.13;;;9.00;99.90;;;;;;5052406;28;20499;-58
2021/11/04 04:51:48;;;;;;;33.43;16.37;;;9.10;99.90;;;;;;5051565;28;20478;-56
2021/11/04 04:54:14;;;;;;;36.27;17.67;;;9.10;99.90;;;;;;5051185;28;20506;-54
2021/11/04 04:56:41;;;;;;;31.80;16.90;;;9.00;99.90;;;;;;5052201;28;20555;-59
2021/11/04 04:59:08;;;;;;;26.57;15.10;;;9.00;99.90;;;;;;5051214;28;20452;-55
2021/11/04 05:01:36;;;;;;;27.23;15.87;;;9.00;99.90;;;;;;5051761;28;20413;-56
2021/11/04 05:04:02;;;;;;;37.23;18.97;;;9.00;99.90;;;;;;5051742;28;20459;-57
2021/11/04 05:06:29;;;;;;;32.07;17.10;;;9.00;99.90;;;;;;5051456;28;20444;-56
2021/11/04 05:08:56;;;;;;;33.10;16.60;;;9.00;99.90;;;;;;5051814;28;20535;-59
2021/11/04 05:11:25;;;;;;;36.27;17.60;;;8.90;99.90;;;;;;5052123;28;20472;-53
2021/11/04 05:13:52;;;;;;;33.37;17.60;;;8.90;99.90;;;;;;5051907;28;20812;-55
2021/11/04 05:16:19;;;;;;;30.33;16.17;;;9.00;99.90;;;;;;5051997;28;20472;-54
2021/11/04 05:18:47;;;;;;;27.27;16.30;;;8.90;99.90;;;;;;5051962;28;20440;-58
2021/11/04 05:21:13;;;;;;;29.17;15.30;;;9.00;99.90;;;;;;5051863;28;20440;-56
2021/11/04 05:23:40;;;;;;;28.97;16.33;;;9.00;99.90;;;;;;5051805;28;20444;-57
2021/11/04 05:26:06;;;;;;;35.17;16.80;;;8.90;99.90;;;;;;5051688;28;20439;-58
2021/11/04 05:28:33;;;;;;;38.70;16.43;;;8.90;99.90;;;;;;5051537;28;20476;-58
2021/11/04 05:31:01;;;;;;;34.77;17.50;;;8.90;99.90;;;;;;5051485;28;20452;-57
2021/11/04 05:33:28;;;;;;;34.63;17.30;;;9.00;99.90;;;;;;5051095;28;20478;-58
2021/11/04 05:35:56;;;;;;;28.73;15.90;;;8.90;99.90;;;;;;5051579;28;20507;-57
2021/11/04 05:38:23;;;;;;;38.90;17.90;;;9.00;99.90;;;;;;5051823;28;20471;-58
2021/11/04 05:40:49;;;;;;;34.17;15.67;;;8.90;99.90;;;;;;5051713;28;20448;-57
2021/11/04 05:43:16;;;;;;;37.07;19.70;;;8.90;99.90;;;;;;5051079;28;20448;-56
2021/11/04 05:45:42;;;;;;;37.77;18.47;;;9.00;99.90;;;;;;5051057;28;20424;-58
2021/11/04 05:48:09;;;;;;;35.80;17.20;;;9.00;99.90;;;;;;5051477;28;20772;-57
2021/11/04 05:50:36;;;;;;;33.13;17.63;;;9.00;99.90;;;;;;5050981;28;20464;-56
2021/11/04 05:53:04;;;;;;;36.23;16.57;;;9.00;99.90;;;;;;5050766;28;20822;-59
2021/11/04 05:55:30;;;;;;;39.17;18.73;;;8.90;99.90;;;;;;5050255;28;20937;-57
2021/11/04 05:57:58;;;;;;;35.47;16.80;;;9.00;99.90;;;;;;5050173;28;20451;-55
2021/11/04 06:00:24;;;;;;;40.30;17.03;;;9.00;99.90;;;;;;5050328;28;20472;-56
2021/11/04 06:02:51;;;;;;;37.53;17.97;;;9.00;99.90;;;;;;5050307;28;20773;-58
2021/11/04 06:05:18;;;;;;;36.03;16.90;;;8.90;99.90;;;;;;5050649;28;20479;-58
2021/11/04 06:07:52;;;;;;;39.00;19.30;;;9.00;99.90;;;;;;5053583;23;20479;-59
2021/11/04 06:10:32;;;;;;;31.53;19.03;;;8.90;99.90;;;;;;5041681;28;20550;-54
2021/11/04 06:12:59;;;;;;;35.77;17.10;;;8.90;99.90;;;;;;5048834;23;20541;-58
2021/11/04 06:15:26;;;;;;;37.37;17.40;;;8.90;99.90;;;;;;5042965;28;20466;-58
2021/11/04 06:17:53;;;;;;;31.17;17.13;;;8.90;99.90;;;;;;5048498;23;20554;-52
2021/11/04 06:20:20;;;;;;;32.77;17.47;;;8.80;99.90;;;;;;5040930;28;20456;-55
2021/11/04 06:22:46;;;;;;;34.07;16.83;;;8.80;99.90;;;;;;5049491;23;20498;-57
2021/11/04 06:25:15;;;;;;;33.07;16.97;;;8.80;99.90;;;;;;5041347;28;20444;-58
2021/11/04 06:27:43;;;;;;;31.70;15.57;;;8.80;99.90;;;;;;5048912;23;20492;-57
2021/11/04 06:30:13;;;;;;;26.17;15.63;;;8.90;99.90;;;;;;5041904;28;20509;-58
2021/11/04 06:32:40;;;;;;;34.43;17.80;;;8.90;99.90;;;;;;5047916;23;20487;-56
2021/11/04 06:35:09;;;;;;;33.43;17.53;;;8.90;99.90;;;;;;5042426;28;21019;-56
2021/11/04 06:37:39;;;;;;;45.60;18.30;;;8.90;99.90;;;;;;5065174;23;20440;-55
2021/11/04 06:40:08;;;;;;;33.17;18.30;;;8.90;99.90;;;;;;5050030;28;20479;-55
2021/11/04 06:42:36;;;;;;;37.37;18.17;;;9.00;99.90;;;;;;5057597;23;20455;-59
2021/11/04 06:45:05;;;;;;;34.63;16.90;;;9.00;99.90;;;;;;5049139;28;20575;-58
2021/11/04 06:47:38;;;;;;;44.73;19.60;;;9.00;99.90;;;;;;5050475;28;20539;-59
2021/11/04 06:50:06;;;;;;;41.70;18.80;;;9.00;99.90;;;;;;5039050;23;20481;-56
2021/11/04 06:52:36;;;;;;;36.40;16.10;;;9.00;99.90;;;;;;5030493;28;20441;-57
2021/11/04 06:55:04;;;;;;;31.30;15.30;;;8.90;99.90;;;;;;5052749;23;20488;-55
2021/11/04 06:57:33;;;;;;;35.97;18.07;;;8.90;99.90;;;;;;5049554;28;20480;-59
2021/11/04 07:00:07;;;;;;;36.33;20.10;;;9.00;99.90;;;;;;5071588;23;20492;-50
2021/11/04 07:02:36;;;;;;;31.37;16.07;;;9.00;99.90;;;;;;5033000;28;20448;-57
2021/11/04 07:05:05;;;;;;;36.53;18.93;;;9.00;99.90;;;;;;5048071;23;20549;-55
2021/11/04 07:07:43;;;;;;;33.70;16.97;;;9.00;99.90;;;;;;5040169;28;20480;-53
2021/11/04 07:10:10;;;;;;;41.47;18.13;;;9.00;99.90;;;;;;5047501;23;20494;-58
2021/11/04 07:12:37;;;;;;;34.23;17.07;;;9.00;99.90;;;;;;5040661;28;20482;-58
2021/11/04 07:17:41;;;;;;;31.57;17.00;;;9.00;99.90;;;;;;5045560;23;20475;-58
2021/11/04 07:20:09;;;;;;;29.67;14.47;;;9.00;99.90;;;;;;5041304;28;20436;-54
2021/11/04 07:22:40;;;;;;;35.33;18.80;;;9.00;99.90;;;;;;5075811;23;20496;-53
2021/11/04 07:25:08;;;;;;;32.40;18.10;;;9.10;99.90;;;;;;5045217;28;20441;-56
2021/11/04 07:27:47;;;;;;;29.80;16.93;;;9.10;99.90;;;;;;5054552;23;20487;-57
2021/11/04 07:30:18;;;;;;;30.70;16.23;;;9.10;99.90;;;;;;5045310;28;20511;-58
2021/11/04 07:32:51;;;;;;;46.27;18.07;;;9.10;99.90;;;;;;5054765;23;20829;-58
2021/11/04 07:35:20;;;;;;;31.33;17.53;;;9.10;99.90;;;;;;5047681;28;20460;-56
2021/11/04 07:37:47;;;;;;;28.03;15.77;;;9.10;99.90;;;;;;5049386;28;20468;-52
2021/11/04 07:40:17;;;;;;;37.63;18.50;;;9.10;99.90;;;;;;5055701;28;20449;-58
2021/11/04 07:42:44;;;;;;;32.73;16.30;;;9.10;99.90;;;;;;5053212;28;20464;-58
2021/11/04 07:45:11;;;;;;;28.30;17.07;;;9.10;99.90;;;;;;5040010;28;20534;-57
2021/11/04 07:47:39;;;;;;;33.00;15.90;;;9.10;99.90;;;;;;5045174;23;20832;-59
2021/11/04 07:50:09;;;;;;;33.63;18.07;;;9.20;99.90;;;;;;5041118;28;20835;-60
2021/11/04 07:52:38;;;;;;;28.93;16.97;;;9.10;99.90;;;;;;5062254;23;20553;-54
2021/11/04 07:55:06;;;;;;;37.13;16.23;;;9.10;99.90;;;;;;5040241;28;20463;-60
2021/11/04 07:57:36;;;;;;;32.57;17.97;;;9.20;99.90;;;;;;5040275;28;20506;-57
2021/11/04 08:00:05;;;;;;;35.60;15.80;;;9.20;99.90;;;;;;5040743;28;20448;-54
2021/11/04 08:02:32;;;;;;;41.17;19.50;;;9.20;99.90;;;;;;5040875;28;20488;-56
2021/11/04 08:04:58;;;;;;;37.57;17.70;;;9.20;99.90;;;;;;5040810;28;20448;-57
2021/11/04 08:07:29;;;;;;;34.53;19.30;;;9.10;99.90;;;;;;5040079;28;20468;-59
2021/11/04 08:09:56;;;;;;;44.23;18.17;;;9.20;99.90;;;;;;5039421;28;20444;-58
2021/11/04 08:12:23;;;;;;;38.77;16.60;;;9.20;99.90;;;;;;5040136;28;20545;-58
2021/11/04 08:14:50;;;;;;;44.57;17.07;;;9.20;99.90;;;;;;5039436;28;20806;-59
2021/11/04 08:17:17;;;;;;;30.10;18.30;;;9.10;99.90;;;;;;5039225;28;20446;-60
2021/11/04 08:19:43;;;;;;;40.50;18.33;;;9.10;99.90;;;;;;5045866;28;20992;-60
2021/11/04 08:22:10;;;;;;;38.40;17.90;;;9.00;99.90;;;;;;5046667;28;20510;-62
2021/11/04 08:24:38;;;;;;;30.17;17.23;;;9.10;99.90;;;;;;5046136;28;20468;-61
2021/11/04 08:27:05;;;;;;;41.93;19.53;;;9.10;99.90;;;;;;5047428;28;20443;-61
2021/11/04 08:29:32;;;;;;;34.33;16.37;;;9.10;99.90;;;;;;5047119;28;20549;-59
2021/11/04 08:31:58;;;;;;;34.30;16.37;;;9.00;99.90;;;;;;5044180;28;20455;-61
2021/11/04 08:34:25;;;;;;;29.73;14.53;;;9.00;99.90;;;;;;5043554;28;20440;-60
2021/11/04 08:36:51;;;;;;;30.53;15.70;;;9.00;99.90;;;;;;5043283;28;20502;-53
2021/11/04 08:39:18;;;;;;;31.73;16.10;;;9.00;99.90;;;;;;5043364;28;20463;-57
2021/11/04 08:41:47;;;;;;;32.73;16.77;;;9.00;99.90;;;;;;5043845;28;20554;-57
2021/11/04 08:44:13;;;;;;;34.57;16.30;;;8.90;99.90;;;;;;5043340;28;20486;-58
2021/11/04 08:46:40;;;;;;;22.20;12.30;;;8.90;99.90;;;;;;5043158;28;20468;-53
2021/11/04 08:49:07;;;;;;;31.90;15.43;;;8.90;99.90;;;;;;5043568;28;20490;-58
2021/11/04 08:51:34;;;;;;;32.30;14.50;;;8.90;99.90;;;;;;5043098;28;20513;-59
2021/11/04 08:54:01;;;;;;;29.80;15.30;;;8.90;99.90;;;;;;5043461;28;20484;-59
2021/11/04 08:56:27;;;;;;;33.80;15.23;;;8.90;99.90;;;;;;5043839;28;20501;-58
2021/11/04 08:58:55;;;;;;;31.87;14.63;;;8.90;99.90;;;;;;5043750;28;20464;-55
2021/11/04 09:01:24;;;;;;;29.27;13.97;;;8.90;99.90;;;;;;5053470;23;20582;-57
2021/11/04 09:03:50;;;;;;;22.40;14.77;;;8.80;99.90;;;;;;5043698;28;20459;-56
2021/11/04 09:06:20;;;;;;;21.27;12.17;;;8.90;99.90;;;;;;4768580;23;8690637;-57
2021/11/04 09:08:53;;;;;;;19.23;12.17;;;8.90;99.90;;;;;;5054608;28;20221;-60
2021/11/04 09:11:20;;;;;;;30.40;13.60;;;8.90;99.90;;;;;;5054981;23;20551;-56
2021/11/04 09:13:47;;;;;;;23.07;13.60;;;8.80;99.90;;;;;;5048422;28;20450;-58
2021/11/04 09:16:17;;;;;;;27.43;14.17;;;8.80;99.90;;;;;;5054076;23;20483;-59
2021/11/04 09:18:44;;;;;;;23.07;12.37;;;8.80;99.90;;;;;;5052947;28;20468;-55
2021/11/04 09:21:11;;;;;;;23.53;11.93;;;8.80;99.90;;;;;;5054752;28;20467;-54
2021/11/04 09:23:37;;;;;;;28.30;14.13;;;8.70;99.90;;;;;;5053664;28;20490;-54
2021/11/04 09:26:04;;;;;;;33.27;13.83;;;8.70;99.90;;;;;;5054915;28;20471;-59
2021/11/04 09:28:31;;;;;;;22.93;13.27;;;8.70;99.90;;;;;;5055313;28;20828;-54
2021/11/04 09:30:58;;;;;;;19.37;10.50;;;8.70;99.90;;;;;;5051950;28;20436;-55
2021/11/04 09:33:26;;;;;;;20.73;11.40;;;8.60;99.90;;;;;;5047992;28;20450;-54
2021/11/04 09:35:53;;;;;;;22.53;11.83;;;8.60;99.90;;;;;;5043251;28;20440;-50
2021/11/04 09:38:19;;;;;;;18.77;10.80;;;8.60;99.90;;;;;;5043986;28;20507;-54
2021/11/04 09:40:46;;;;;;;20.97;11.70;;;8.60;99.90;;;;;;5042398;28;20448;-52
2021/11/04 09:43:16;;;;;;;24.07;10.77;;;8.60;99.90;;;;;;5042285;28;20476;-51
2021/11/04 09:45:42;;;;;;;19.90;10.43;;;8.60;99.90;;;;;;5041960;28;20498;-52
2021/11/04 09:48:09;;;;;;;20.17;10.57;;;8.60;99.90;;;;;;5042702;28;20476;-53
2021/11/04 09:50:37;;;;;;;27.57;9.70;;;8.50;99.90;;;;;;5042225;28;20881;-53
2021/11/04 09:53:05;;;;;;;21.13;10.93;;;8.50;99.90;;;;;;5042103;28;20459;-54
2021/11/04 09:55:35;;;;;;;23.10;11.80;;;8.50;99.90;;;;;;5043441;28;20452;-48
2021/11/04 10:00:50;;;;;;;21.50;10.80;;;8.60;99.90;;;;;;5825099;23;20481;-45
2021/11/04 10:03:17;;;;;;;20.07;11.57;;;8.60;99.90;;;;;;5147796;22;20494;-57
2021/11/04 10:05:49;;;;;;;26.20;12.57;;;8.60;99.90;;;;;;5065320;28;20484;-56
2021/11/04 10:08:17;;;;;;;22.67;11.50;;;8.70;99.90;;;;;;5012271;23;20808;-56
2021/11/04 10:10:45;;;;;;;25.33;12.30;;;8.70;99.90;;;;;;5003737;28;20474;-58
2021/11/04 10:13:15;;;;;;;18.87;11.10;;;8.70;99.90;;;;;;5003745;28;20457;-60
2021/11/04 10:15:43;;;;;;;16.90;8.77;;;8.60;99.90;;;;;;5003353;28;20476;-53
2021/11/04 10:18:16;;;;;;;19.70;8.90;;;8.60;99.90;;;;;;5015899;28;20509;-53
2021/11/04 10:20:52;;;;;;;19.10;10.40;;;8.60;99.90;;;;;;5015409;28;20513;-48
2021/11/04 10:23:19;;;;;;;16.03;9.40;;;8.60;99.90;;;;;;5031164;23;20530;-58
2021/11/04 10:25:48;;;;;;;15.80;8.07;;;8.50;99.90;;;;;;5037679;28;20540;-59
2021/11/04 10:28:26;;;;;;;16.37;8.53;;;8.50;99.90;;;;;;5043959;23;20468;-57
2021/11/04 10:30:56;;;;;;;16.30;8.40;;;8.60;99.90;;;;;;5030363;28;20488;-58
2021/11/04 10:33:25;;;;;;;22.30;9.43;;;8.50;99.90;;;;;;5026093;28;20456;-60
2021/11/04 10:36:05;;;;;;;13.10;8.27;;;8.60;99.90;;;;;;5014238;28;20454;-53
2021/11/04 10:38:44;;;;;;;10.10;8.33;;;8.60;99.90;;;;;;5024162;23;20487;-56
2021/11/04 10:41:18;;;;;;;14.70;7.63;;;8.60;99.90;;;;;;5037836;28;20469;-56
2021/11/04 10:43:45;;;;;;;13.73;8.00;;;8.60;99.90;;;;;;5036696;28;20497;-54
2021/11/04 10:46:13;;;;;;;22.47;10.70;;;8.60;99.90;;;;;;5026096;28;20945;-59
2021/11/04 10:48:42;;;;;;;13.47;7.27;;;8.60;99.90;;;;;;5035846;28;20480;-60
2021/11/04 10:51:13;;;;;;;9.33;6.60;;;8.60;99.90;;;;;;5032724;28;20460;-56
2021/11/04 10:53:43;;;;;;;10.70;6.40;;;8.60;99.90;;;;;;5038314;23;20524;-36
2021/11/04 10:56:23;;;;;;;10.10;7.53;;;8.60;99.90;;;;;;5038182;28;20467;-52
2021/11/04 11:01:27;;;;;;;12.40;7.37;;;8.60;99.90;;;;;;5043821;23;20492;-59
2021/11/04 11:06:40;;;;;;;10.73;6.30;;;8.60;99.90;;;;;;5059687;23;20492;-53
2021/11/04 11:11:51;;;;;;;12.40;6.80;;;8.50;99.90;;;;;;5044591;23;20484;-57
2021/11/04 11:17:05;;;;;;;9.00;4.93;;;8.50;99.90;;;;;;5044653;23;20955;-59
2021/11/04 11:22:07;;;;;;;12.27;6.40;;;8.50;99.90;;;;;;5045499;23;20488;-57
2021/11/04 11:24:36;;;;;;;9.67;5.50;;;8.50;99.90;;;;;;5041530;28;20519;-59
2021/11/04 11:27:07;;;;;;;10.90;5.57;;;8.50;99.90;;;;;;5047953;23;20553;-59
2021/11/04 11:29:35;;;;;;;9.00;6.17;;;8.50;99.90;;;;;;5041926;28;20468;-59
2021/11/04 11:32:04;;;;;;;6.63;5.20;;;8.50;99.90;;;;;;5064460;23;20535;-55
2021/11/04 11:34:33;;;;;;;7.83;4.77;;;8.50;99.90;;;;;;5041831;28;20440;-59
2021/11/04 11:37:16;;;;;;;12.83;5.90;;;8.50;99.90;;;;;;5041204;28;20514;-59
2021/11/04 11:39:47;;;;;;;9.00;5.67;;;8.50;99.90;;;;;;5040783;28;20421;-60
2021/11/04 11:42:18;;;;;;;7.40;4.87;;;8.60;99.90;;;;;;5039831;28;20534;-59
2021/11/04 11:44:57;;;;;;;6.40;4.93;;;8.60;99.90;;;;;;5040273;28;20437;-58
2021/11/04 11:47:37;;;;;;;11.17;5.90;;;8.60;99.90;;;;;;5047507;23;20484;-60
2021/11/04 11:50:26;;;;;;;8.30;4.67;;;8.60;99.90;;;;;;5040692;28;20479;-55
2021/11/04 11:52:59;;;;;;;5.67;4.17;;;8.60;99.90;;;;;;5046656;23;20492;-60
2021/11/04 11:55:39;;;;;;;8.80;5.50;;;8.60;99.90;;;;;;5039607;28;20455;-60
2021/11/04 11:58:36;;;;;;;6.97;4.70;;;8.60;99.90;;;;;;5046757;23;20505;-59
2021/11/04 12:01:09;;;;;;;6.17;4.20;;;8.60;99.90;;;;;;5040074;28;20428;-61
2021/11/04 12:04:01;;;;;;;7.73;4.60;;;8.60;99.90;;;;;;5039417;28;20472;-60
2021/11/04 12:06:44;;;;;;;6.97;4.27;;;8.60;99.90;;;;;;5045296;23;20436;-57
2021/11/04 12:09:32;;;;;;;10.80;5.30;;;8.60;99.90;;;;;;5022717;28;20484;-50
2021/11/04 12:11:59;;;;;;;8.37;4.33;;;8.60;99.90;;;;;;5021403;28;20881;-59
2021/11/04 12:14:31;;;;;;;6.60;3.47;;;8.60;99.90;;;;;;5019829;28;20449;-56
2021/11/04 12:17:14;;;;;;;7.37;4.67;;;8.70;99.90;;;;;;5028725;23;20468;-60
2021/11/04 12:19:42;;;;;;;5.23;3.63;;;8.60;99.90;;;;;;5020188;28;20895;-60
2021/11/04 12:22:11;;;;;;;6.70;3.77;;;8.60;99.90;;;;;;5029004;23;20457;-60
2021/11/04 12:24:49;;;;;;;6.00;3.97;;;8.60;99.90;;;;;;5040281;28;20452;-59
2021/11/04 12:27:16;;;;;;;7.13;3.93;;;8.60;99.90;;;;;;5047486;23;20826;-56
2021/11/04 12:29:45;;;;;;;5.70;4.50;;;8.60;99.90;;;;;;5038210;28;20506;-60
2021/11/04 12:32:13;;;;;;;6.90;4.17;;;8.60;99.90;;;;;;5038472;28;20440;-57
2021/11/04 12:34:41;;;;;;;4.30;3.43;;;8.60;99.90;;;;;;5039633;28;20479;-60
2021/11/04 12:37:13;;;;;;;6.20;3.87;;;8.50;99.90;;;;;;5039101;28;20475;-60
2021/11/04 12:39:47;;;;;;;13.13;5.13;;;8.50;99.90;;;;;;5039634;28;20444;-56
2021/11/04 12:42:17;;;;;;;4.70;3.47;;;8.50;99.90;;;;;;5023814;28;20424;-59
2021/11/04 12:44:44;;;;;;;5.03;3.27;;;8.50;99.90;;;;;;5056492;23;20809;-59
2021/11/04 12:47:16;;;;;;;5.40;3.73;;;8.50;99.90;;;;;;5040294;28;20455;-59
2021/11/04 12:49:43;;;;;;;5.33;4.20;;;8.50;99.90;;;;;;5038879;28;20504;-60
2021/11/04 12:52:11;;;;;;;7.03;3.40;;;8.50;99.90;;;;;;5040119;28;20444;-58
2021/11/04 12:54:40;;;;;;;6.83;3.53;;;8.50;99.90;;;;;;5047831;23;20492;-57
2021/11/04 12:57:10;;;;;;;9.00;4.20;;;8.50;99.90;;;;;;5039484;28;20470;-55
2021/11/04 12:59:39;;;;;;;3.87;2.90;;;8.50;99.90;;;;;;5046459;23;20527;-59
2021/11/04 13:02:09;;;;;;;7.60;4.33;;;8.50;99.90;;;;;;5039397;28;20444;-57
2021/11/04 13:04:38;;;;;;;5.97;4.13;;;8.60;99.90;;;;;;5046039;23;20495;-58
2021/11/04 13:07:07;;;;;;;4.47;3.60;;;8.60;99.90;;;;;;5043247;28;20905;-59
2021/11/04 13:09:51;;;;;;;4.30;2.90;;;8.60;99.90;;;;;;5042817;28;20475;-57
2021/11/04 13:12:21;;;;;;;9.37;4.20;;;8.60;99.90;;;;;;5043523;28;20514;-55
2021/11/04 13:14:58;;;;;;;4.60;2.53;;;8.60;99.90;;;;;;5050186;23;20490;-55
2021/11/04 13:17:42;;;;;;;3.67;2.90;;;8.60;99.90;;;;;;5043942;28;20432;-57